Time;durP1;ratioP1;P1;durP2;ratioP2;P2;SDS_P1;SDS_P2;PMS_P1;PMS_P2;Temp;Humidity;BMP_temperature;BMP_pressure;BME280_temperature;BME280_humidity;BME280_pressure;Samples;Min_cycle;Max_cycle;Signal;HPM_P1;HPM_P2
2023/09/15 00:00:17;;;;;;;8.52;6.40;;;;;;;23.69;48.27;101918.78;5007066;28;20034;-64
2023/09/15 00:02:43;;;;;;;8.10;6.15;;;;;;;23.70;48.79;101920.47;5006899;28;20113;-67
2023/09/15 00:05:12;;;;;;;7.80;6.10;;;;;;;23.69;48.42;101926.75;5006772;28;20133;-65
2023/09/15 00:07:38;;;;;;;8.35;6.55;;;;;;;23.67;48.66;101920.75;5006571;28;20026;-68
2023/09/15 00:10:06;;;;;;;7.63;6.22;;;;;;;23.68;48.24;101919.75;5006311;28;20029;-65
2023/09/15 00:12:31;;;;;;;7.78;6.32;;;;;;;23.67;48.68;101914.56;5006558;28;20025;-66
2023/09/15 00:14:57;;;;;;;9.85;6.85;;;;;;;23.67;48.44;101915.44;5006723;28;20059;-66
2023/09/15 00:17:24;;;;;;;8.50;6.22;;;;;;;23.67;48.53;101917.22;5006425;28;20080;-65
2023/09/15 00:19:50;;;;;;;8.40;6.55;;;;;;;23.66;48.32;101923.53;5006523;28;20517;-67
2023/09/15 00:22:15;;;;;;;7.95;6.38;;;;;;;23.66;48.16;101908.41;5006259;28;20040;-68
2023/09/15 00:24:41;;;;;;;9.93;6.45;;;;;;;23.64;48.27;101910.38;5006538;28;20042;-65
2023/09/15 00:27:06;;;;;;;7.50;6.05;;;;;;;23.65;48.66;101911.19;5006500;28;20037;-67
2023/09/15 00:29:31;;;;;;;8.10;6.13;;;;;;;23.63;48.27;101908.69;5006945;28;20053;-67
2023/09/15 00:31:57;;;;;;;8.43;6.25;;;;;;;23.64;48.59;101907.72;5006791;28;20482;-66
2023/09/15 00:34:22;;;;;;;8.02;6.80;;;;;;;23.62;48.74;101901.66;5006818;28;20033;-67
2023/09/15 00:36:49;;;;;;;8.48;6.45;;;;;;;23.64;48.05;101906.84;5006631;28;20033;-65
2023/09/15 00:39:14;;;;;;;8.10;6.63;;;;;;;23.61;48.02;101904.50;5006484;28;20474;-65
2023/09/15 00:41:40;;;;;;;7.45;6.22;;;;;;;23.60;48.06;101897.47;5006565;28;20026;-65
2023/09/15 00:44:05;;;;;;;8.02;6.65;;;;;;;23.60;48.20;101892.97;5006612;28;20028;-65
2023/09/15 00:46:30;;;;;;;8.70;6.28;;;;;;;23.59;48.08;101898.44;5006977;28;20037;-65
2023/09/15 00:48:57;;;;;;;8.50;6.55;;;;;;;23.59;48.08;101890.47;5006627;28;20038;-64
2023/09/15 00:51:24;;;;;;;8.23;5.95;;;;;;;23.60;48.23;101902.78;5006450;28;20041;-66
2023/09/15 00:53:50;;;;;;;7.47;6.05;;;;;;;23.59;48.10;101893.13;5006452;28;20034;-67
2023/09/15 00:56:17;;;;;;;9.43;6.72;;;;;;;23.58;48.58;101897.59;5006682;28;20049;-66
2023/09/15 00:58:43;;;;;;;8.30;6.78;;;;;;;23.56;48.52;101894.25;5006531;28;20030;-68
2023/09/15 01:01:10;;;;;;;8.68;6.10;;;;;;;23.54;48.15;101894.38;5006525;28;20030;-65
2023/09/15 01:03:41;;;;;;;7.32;6.10;;;;;;;23.55;48.59;101890.72;5006312;28;20038;-68
2023/09/15 01:06:08;;;;;;;8.32;6.53;;;;;;;23.55;48.67;101889.91;5006302;28;20034;-66
2023/09/15 01:08:37;;;;;;;10.43;6.32;;;;;;;23.54;47.95;101889.06;5006216;28;20038;-67
2023/09/15 01:11:04;;;;;;;11.35;6.45;;;;;;;23.53;48.47;101890.03;5006497;28;20038;-65
2023/09/15 01:13:34;;;;;;;9.27;6.95;;;;;;;23.53;48.14;101881.22;5006384;28;20054;-67
2023/09/15 01:16:14;;;;;;;8.27;6.40;;;;;;;23.54;48.29;101889.06;5006766;28;20026;-66
2023/09/15 01:19:03;;;;;;;7.80;6.35;;;;;;;23.52;48.35;101885.66;5006254;28;20044;-65
2023/09/15 01:21:53;;;;;;;7.80;6.18;;;;;;;23.54;48.42;101880.22;5006435;28;20034;-66
2023/09/15 01:24:30;;;;;;;8.23;6.60;;;;;;;23.52;48.07;101875.03;5006613;28;20044;-66
2023/09/15 01:27:27;;;;;;;7.57;6.38;;;;;;;23.50;48.22;101871.69;5005922;28;20620;-65
2023/09/15 01:29:56;;;;;;;10.48;6.15;;;;;;;23.51;48.43;101872.50;5006196;28;20054;-65
2023/09/15 01:32:22;;;;;;;7.38;6.38;;;;;;;23.50;48.00;101876.16;5005778;28;20060;-65
2023/09/15 01:34:50;;;;;;;8.43;6.07;;;;;;;23.47;48.21;101866.63;5005815;28;20487;-65
2023/09/15 01:37:15;;;;;;;8.07;5.80;;;;;;;23.46;48.05;101862.25;5006217;28;20037;-68
2023/09/15 01:39:41;;;;;;;9.40;6.65;;;;;;;23.47;48.00;101866.63;5009171;28;20064;-66
2023/09/15 01:42:07;;;;;;;8.75;6.32;;;;;;;23.46;48.19;101869.41;5009732;28;20080;-64
2023/09/15 01:44:32;;;;;;;8.88;6.25;;;;;;;23.47;48.38;101865.78;5009768;28;20030;-65
2023/09/15 01:46:57;;;;;;;8.48;6.20;;;;;;;23.46;48.24;101858.78;5009492;28;20108;-67
2023/09/15 01:49:24;;;;;;;7.00;5.78;;;;;;;23.44;48.29;101858.91;5009536;28;20034;-65
2023/09/15 01:51:51;;;;;;;7.15;5.95;;;;;;;23.45;47.98;101860.59;5009370;28;20042;-66
2023/09/15 01:54:17;;;;;;;7.55;6.32;;;;;;;23.46;48.30;101861.44;5009219;28;20026;-65
2023/09/15 01:56:43;;;;;;;7.95;6.05;;;;;;;23.43;48.00;101854.59;5009469;28;20474;-66
2023/09/15 01:59:09;;;;;;;8.55;6.22;;;;;;;23.42;48.35;101855.56;5009500;28;20026;-67
2023/09/15 02:01:34;;;;;;;8.60;6.05;;;;;;;23.43;48.12;101854.59;5009313;28;20454;-68
2023/09/15 02:04:00;;;;;;;8.65;6.18;;;;;;;23.41;48.13;101856.53;5009358;28;21782;-65
2023/09/15 02:06:25;;;;;;;7.55;6.25;;;;;;;23.44;47.87;101858.91;5009101;28;20029;-68
2023/09/15 02:08:50;;;;;;;7.00;5.45;;;;;;;23.42;47.97;101849.41;5008931;28;20073;-67
2023/09/15 02:11:16;;;;;;;8.25;6.20;;;;;;;23.42;48.08;101854.72;5009300;28;20037;-65
2023/09/15 02:13:42;;;;;;;8.82;6.30;;;;;;;23.41;47.58;101851.19;5008712;28;20037;-67
2023/09/15 02:16:08;;;;;;;7.72;5.50;;;;;;;23.41;47.76;101856.53;5009094;28;20112;-65
2023/09/15 02:18:33;;;;;;;8.48;6.18;;;;;;;23.38;48.16;101854.13;5008570;28;20120;-67
2023/09/15 02:20:59;;;;;;;6.70;5.63;;;;;;;23.40;48.12;101852.19;5008743;28;20441;-64
2023/09/15 02:23:25;;;;;;;7.57;6.07;;;;;;;23.39;47.81;101857.66;5008716;28;20030;-66
2023/09/15 02:25:51;;;;;;;7.40;5.90;;;;;;;23.39;47.66;101862.97;5008453;28;20034;-65
2023/09/15 02:28:19;;;;;;;8.20;6.40;;;;;;;23.36;47.65;101848.94;5008902;28;20395;-64
2023/09/15 02:30:44;;;;;;;8.18;5.97;;;;;;;23.36;47.59;101848.94;5008500;28;20061;-64
2023/09/15 02:33:10;;;;;;;8.80;6.00;;;;;;;23.38;47.97;101845.31;5008619;28;20034;-66
2023/09/15 02:35:35;;;;;;;7.28;5.90;;;;;;;23.36;48.11;101840.97;5008553;28;20032;-65
2023/09/15 02:38:00;;;;;;;8.68;6.30;;;;;;;23.34;47.59;101840.25;5008393;28;20466;-65
2023/09/15 02:40:26;;;;;;;8.02;5.93;;;;;;;23.35;48.06;101846.41;5008867;28;20145;-66
2023/09/15 02:42:52;;;;;;;8.52;6.20;;;;;;;23.35;47.93;101841.09;5008546;28;20034;-63
2023/09/15 02:45:17;;;;;;;7.10;5.90;;;;;;;23.35;47.90;101841.97;5008578;28;20030;-66
2023/09/15 02:47:43;;;;;;;7.30;5.50;;;;;;;23.34;47.90;101839.44;5008697;28;20026;-64
2023/09/15 02:50:08;;;;;;;7.28;5.60;;;;;;;23.32;48.11;101834.25;5008410;28;20034;-65
2023/09/15 02:52:34;;;;;;;8.38;6.15;;;;;;;23.31;47.50;101839.69;5008139;28;20038;-67
2023/09/15 02:55:00;;;;;;;7.80;5.50;;;;;;;23.33;47.47;101838.56;5008433;28;20053;-66
2023/09/15 02:57:25;;;;;;;6.70;5.55;;;;;;;23.31;47.61;101840.53;5008157;28;20064;-66
2023/09/15 02:59:52;;;;;;;7.40;5.57;;;;;;;23.31;47.90;101837.03;5008653;28;20041;-64
2023/09/15 03:02:20;;;;;;;8.88;5.93;;;;;;;23.32;47.81;101838.69;5008112;28;20266;-65
2023/09/15 03:04:46;;;;;;;8.95;5.95;;;;;;;23.30;47.38;101835.34;5008074;28;20478;-64
2023/09/15 03:07:12;;;;;;;7.28;5.50;;;;;;;23.30;47.89;101838.00;5007834;28;20037;-66
2023/09/15 03:09:37;;;;;;;7.43;5.82;;;;;;;23.28;47.44;101826.69;5008083;28;20026;-67
2023/09/15 03:12:03;;;;;;;6.65;5.57;;;;;;;23.27;47.50;101828.47;5008243;28;20125;-65
2023/09/15 03:14:29;;;;;;;7.28;5.53;;;;;;;23.27;47.43;101833.78;5007698;28;20116;-65
2023/09/15 03:16:54;;;;;;;8.35;6.32;;;;;;;23.25;48.02;101830.44;5007633;28;20121;-64
2023/09/15 03:19:21;;;;;;;8.50;5.50;;;;;;;23.27;47.40;101838.28;5007441;28;20026;-66
2023/09/15 03:21:46;;;;;;;7.47;5.95;;;;;;;23.26;47.69;101831.28;5007310;28;20056;-67
2023/09/15 03:24:12;;;;;;;7.85;5.55;;;;;;;23.26;47.89;101826.81;5007678;28;20030;-65
2023/09/15 03:26:39;;;;;;;6.78;5.28;;;;;;;23.25;47.28;101822.44;5007811;28;20460;-65
2023/09/15 03:29:04;;;;;;;7.93;5.75;;;;;;;23.25;47.74;101818.97;5007735;28;20117;-64
2023/09/15 03:31:30;;;;;;;6.75;5.05;;;;;;;23.23;47.28;101821.75;5007469;28;20140;-66
2023/09/15 03:33:55;;;;;;;8.13;5.47;;;;;;;23.23;47.29;101816.44;5007692;28;20040;-66
2023/09/15 03:36:21;;;;;;;7.45;5.53;;;;;;;23.23;47.56;101823.59;5007224;28;20030;-64
2023/09/15 03:38:47;;;;;;;7.97;5.30;;;;;;;23.22;47.61;101821.88;5007677;28;20026;-64
2023/09/15 03:41:12;;;;;;;8.73;5.45;;;;;;;23.22;47.43;101813.91;5007678;28;20034;-64
2023/09/15 03:43:37;;;;;;;6.32;4.88;;;;;;;23.20;47.30;101816.69;5007481;28;20034;-66
2023/09/15 03:46:03;;;;;;;6.10;5.00;;;;;;;23.21;47.53;101810.44;5007741;28;20030;-66
2023/09/15 03:48:29;;;;;;;7.78;5.68;;;;;;;23.19;47.53;101807.03;5007240;28;20034;-64
2023/09/15 03:50:55;;;;;;;7.07;5.10;;;;;;;23.20;47.70;101818.53;5006936;28;20038;-67
2023/09/15 03:53:20;;;;;;;7.70;5.00;;;;;;;23.18;47.64;101808.88;5007042;28;20069;-67
2023/09/15 03:55:47;;;;;;;6.68;5.13;;;;;;;23.18;47.16;101816.00;5007223;28;20461;-67
2023/09/15 03:58:12;;;;;;;7.13;4.63;;;;;;;23.18;47.37;101816.84;5006790;28;20360;-65
2023/09/15 04:00:38;;;;;;;6.68;4.90;;;;;;;23.18;47.31;101808.03;5006485;28;20053;-65
2023/09/15 04:03:04;;;;;;;7.95;5.40;;;;;;;23.17;46.90;101801.03;5006744;28;20462;-66
2023/09/15 04:05:29;;;;;;;6.57;4.70;;;;;;;23.15;47.05;101798.50;5007232;28;20465;-64
2023/09/15 04:07:56;;;;;;;6.10;4.90;;;;;;;23.15;47.20;101814.44;5006942;28;20040;-65
2023/09/15 04:10:22;;;;;;;7.93;4.85;;;;;;;23.16;47.17;101804.66;5007008;28;20038;-67
2023/09/15 04:12:47;;;;;;;7.68;5.15;;;;;;;23.16;46.88;101812.63;5006698;28;20386;-66
2023/09/15 04:15:15;;;;;;;6.30;4.78;;;;;;;23.15;47.38;101810.97;5006631;28;20040;-65
2023/09/15 04:17:40;;;;;;;9.23;5.00;;;;;;;23.13;47.24;101805.78;5006426;28;20091;-65
2023/09/15 04:20:09;;;;;;;7.40;5.20;;;;;;;23.12;47.38;101801.41;5006546;28;20030;-64
2023/09/15 04:22:39;;;;;;;6.45;4.78;;;;;;;23.12;47.29;101797.94;5006615;28;20056;-65
2023/09/15 04:25:05;;;;;;;7.10;4.82;;;;;;;23.10;46.71;101795.41;5006461;28;20037;-65
2023/09/15 04:27:32;;;;;;;6.32;4.68;;;;;;;23.11;47.02;101802.38;5006489;28;20437;-66
2023/09/15 04:29:57;;;;;;;6.60;5.00;;;;;;;23.12;46.93;101795.28;5006785;28;20046;-64
2023/09/15 04:32:23;;;;;;;6.82;4.88;;;;;;;23.10;46.76;101798.06;5006486;28;20038;-66
2023/09/15 04:34:53;;;;;;;5.78;4.75;;;;;;;23.10;47.14;101791.91;5006915;28;20482;-67
2023/09/15 04:37:19;;;;;;;7.57;5.13;;;;;;;23.08;46.97;101792.06;5006815;28;20462;-66
2023/09/15 04:39:45;;;;;;;6.70;4.55;;;;;;;23.09;46.72;101793.72;5007001;28;20042;-66
2023/09/15 04:42:11;;;;;;;5.97;4.40;;;;;;;23.07;46.88;101798.31;5006588;28;20448;-65
2023/09/15 04:44:37;;;;;;;6.40;4.50;;;;;;;23.09;46.69;101796.38;5006741;28;20108;-66
2023/09/15 04:47:03;;;;;;;6.82;4.72;;;;;;;23.07;46.78;101795.63;5006287;28;20153;-65
2023/09/15 04:49:28;;;;;;;6.18;4.50;;;;;;;23.08;46.69;101793.84;5006864;28;20053;-67
2023/09/15 04:51:54;;;;;;;6.60;4.70;;;;;;;23.05;47.17;101792.28;5006673;28;20470;-67
2023/09/15 04:54:19;;;;;;;6.88;4.63;;;;;;;23.06;47.19;101804.59;5006523;28;20200;-66
2023/09/15 04:56:44;;;;;;;5.75;4.18;;;;;;;23.06;47.13;101799.25;5006429;28;20026;-67
2023/09/15 04:59:15;;;;;;;6.88;4.95;;;;;;;23.06;47.05;101804.59;5006738;28;20044;-67
2023/09/15 05:01:42;;;;;;;5.88;4.68;;;;;;;23.06;46.91;101809.06;5006303;28;20035;-66
2023/09/15 05:04:07;;;;;;;6.38;4.50;;;;;;;23.05;46.60;101808.25;5006416;28;20057;-65
2023/09/15 05:06:33;;;;;;;6.32;4.35;;;;;;;23.04;46.98;101811.03;5006413;28;20115;-67
2023/09/15 05:08:58;;;;;;;6.22;4.47;;;;;;;23.04;46.94;101811.03;5006623;28;20041;-67
2023/09/15 05:11:23;;;;;;;6.32;4.55;;;;;;;23.05;47.03;101813.56;5006435;28;20034;-66
2023/09/15 05:13:49;;;;;;;6.27;4.47;;;;;;;23.04;46.79;101814.53;5009237;28;20029;-64
2023/09/15 05:16:16;;;;;;;6.38;4.30;;;;;;;23.04;46.60;101814.53;5009931;28;20269;-65
2023/09/15 05:18:41;;;;;;;5.95;4.22;;;;;;;23.05;46.75;101812.69;5010119;28;20025;-66
2023/09/15 05:21:07;;;;;;;5.50;4.32;;;;;;;23.04;46.87;101816.34;5010398;28;20213;-68
2023/09/15 05:23:32;;;;;;;6.60;4.30;;;;;;;23.01;46.99;101820.09;5009980;28;20048;-66
2023/09/15 05:25:58;;;;;;;5.97;4.05;;;;;;;23.03;46.65;101815.47;5010056;28;20454;-66
2023/09/15 05:28:23;;;;;;;6.07;4.00;;;;;;;23.01;47.01;101817.44;5009932;28;20026;-65
2023/09/15 05:30:48;;;;;;;6.72;4.32;;;;;;;23.02;46.72;101819.13;5009818;28;20054;-67
2023/09/15 05:33:15;;;;;;;6.00;4.10;;;;;;;23.03;46.94;101817.31;5009978;28;20053;-66
2023/09/15 05:35:40;;;;;;;7.20;4.45;;;;;;;23.00;46.76;101807.78;5009835;28;20073;-64
2023/09/15 05:38:06;;;;;;;6.57;4.28;;;;;;;23.02;46.54;101819.13;5009973;28;20087;-66
2023/09/15 05:40:31;;;;;;;5.63;4.05;;;;;;;23.00;46.97;101813.94;5009712;28;20029;-67
2023/09/15 05:42:58;;;;;;;6.75;4.28;;;;;;;23.00;46.62;101813.09;5009665;28;20390;-64
2023/09/15 05:45:24;;;;;;;7.15;4.55;;;;;;;22.99;46.70;101809.59;5009461;28;20416;-65
2023/09/15 05:47:49;;;;;;;6.03;4.22;;;;;;;22.98;46.87;101813.22;5009702;28;20049;-64
2023/09/15 05:50:14;;;;;;;7.70;5.03;;;;;;;22.99;46.84;101814.09;5009611;28;20065;-65
2023/09/15 05:52:41;;;;;;;5.47;4.00;;;;;;;22.99;46.73;101816.75;5009574;28;20056;-65
2023/09/15 05:55:06;;;;;;;5.55;4.05;;;;;;;23.00;46.96;101821.94;5009541;28;20121;-65
2023/09/15 05:57:32;;;;;;;6.63;4.20;;;;;;;22.98;46.76;101815.03;5009295;28;20468;-66
2023/09/15 05:59:57;;;;;;;6.13;4.30;;;;;;;22.99;46.95;101817.56;5009048;28;20060;-65
2023/09/15 06:02:22;;;;;;;6.53;4.55;;;;;;;22.98;46.54;101807.06;5008994;28;20473;-65
2023/09/15 06:04:49;;;;;;;7.07;4.43;;;;;;;22.99;46.88;101824.72;5008811;28;20375;-64
2023/09/15 06:07:15;;;;;;;6.10;4.10;;;;;;;22.96;46.64;101815.19;5009100;28;20026;-66
2023/09/15 06:09:40;;;;;;;5.82;4.22;;;;;;;22.99;46.93;101822.88;5008764;28;20109;-67
2023/09/15 06:12:06;;;;;;;5.63;4.03;;;;;;;22.99;46.73;101822.06;5008780;28;20181;-67
2023/09/15 06:14:35;;;;;;;6.10;3.65;;;;;;;22.99;46.82;101814.09;5008694;28;20033;-65
2023/09/15 06:17:01;;;;;;;8.32;4.35;;;;;;;22.98;46.83;101825.69;5008915;28;20363;-66
2023/09/15 06:19:26;;;;;;;6.10;4.00;;;;;;;23.00;46.75;101821.94;5008618;28;20040;-66
2023/09/15 06:21:52;;;;;;;5.10;3.72;;;;;;;23.00;46.92;101821.06;5009048;28;20064;-68
2023/09/15 06:24:17;;;;;;;6.38;3.78;;;;;;;23.00;46.60;101821.06;5008541;28;20489;-65
2023/09/15 06:26:42;;;;;;;5.85;3.92;;;;;;;23.00;46.75;101821.06;5007669;28;20108;-67
2023/09/15 06:29:08;;;;;;;6.65;4.03;;;;;;;23.03;46.92;101819.97;5008293;28;20100;-66
2023/09/15 06:31:33;;;;;;;6.63;4.20;;;;;;;23.03;47.06;101819.97;5008415;28;20426;-66
2023/09/15 06:33:58;;;;;;;6.70;4.15;;;;;;;23.04;47.17;101821.66;5008631;28;20441;-68
2023/09/15 06:36:26;;;;;;;6.32;3.88;;;;;;;23.04;46.94;101808.38;5008690;28;20041;-67
2023/09/15 06:38:51;;;;;;;5.97;4.45;;;;;;;23.03;47.47;101807.50;5008578;28;20029;-65
2023/09/15 06:41:17;;;;;;;7.88;3.85;;;;;;;23.03;47.46;101812.81;5008422;28;20026;-66
2023/09/15 06:43:43;;;;;;;7.68;4.00;;;;;;;23.03;47.14;101807.50;5008274;28;20064;-67
2023/09/15 06:46:08;;;;;;;5.82;3.72;;;;;;;23.03;47.47;101804.84;5008674;28;20033;-65
2023/09/15 06:48:33;;;;;;;5.93;3.80;;;;;;;23.04;47.46;101803.88;5008757;28;20034;-66
2023/09/15 06:50:59;;;;;;;5.93;4.07;;;;;;;23.06;47.43;101809.06;5008442;28;20033;-67
2023/09/15 06:53:24;;;;;;;6.90;3.83;;;;;;;23.05;47.31;101802.91;5006863;28;20026;-65
2023/09/15 06:55:52;;;;;;;6.53;3.67;;;;;;;23.07;47.75;101806.28;5008678;28;20033;-66
2023/09/15 06:58:18;;;;;;;6.15;3.97;;;;;;;23.08;47.89;101805.34;5008324;28;20398;-65
2023/09/15 07:00:43;;;;;;;6.35;3.60;;;;;;;23.10;47.71;101798.06;5007256;28;20026;-65
2023/09/15 07:03:08;;;;;;;5.97;3.67;;;;;;;23.11;47.94;101798.91;5008149;28;20030;-66
2023/09/15 07:05:34;;;;;;;5.22;3.40;;;;;;;23.10;47.75;101803.38;5007077;28;20025;-65
2023/09/15 07:07:59;;;;;;;6.15;3.67;;;;;;;23.12;47.48;101812.06;5007982;28;20033;-66
2023/09/15 07:10:24;;;;;;;5.97;3.90;;;;;;;23.13;47.71;101805.78;5007891;28;20034;-67
2023/09/15 07:12:50;;;;;;;6.63;3.80;;;;;;;23.17;48.08;101807.16;5007883;28;20259;-65
2023/09/15 07:15:15;;;;;;;6.72;3.45;;;;;;;23.16;48.23;101794.88;5007919;28;20030;-66
2023/09/15 07:17:42;;;;;;;6.25;3.65;;;;;;;23.18;48.19;101797.41;5006959;28;20398;-65
2023/09/15 07:20:07;;;;;;;5.63;3.30;;;;;;;23.20;47.80;101797.25;5007276;28;20049;-67
2023/09/15 07:22:33;;;;;;;6.97;3.17;;;;;;;23.20;48.06;101794.59;5007382;28;20040;-66
2023/09/15 07:24:58;;;;;;;5.70;3.33;;;;;;;23.21;47.86;101796.25;5006874;28;20049;-65
2023/09/15 07:27:23;;;;;;;5.50;3.78;;;;;;;23.21;48.45;101786.50;5007124;28;20034;-67
2023/09/15 07:29:50;;;;;;;5.93;3.40;;;;;;;23.22;48.34;101782.00;5006024;28;20053;-65
2023/09/15 07:32:15;;;;;;;6.43;3.42;;;;;;;23.27;48.05;101788.56;5008109;28;20041;-67
2023/09/15 07:34:41;;;;;;;6.90;3.40;;;;;;;23.32;48.17;101785.50;5007090;28;20041;-66
2023/09/15 07:37:06;;;;;;;7.32;3.65;;;;;;;23.34;48.11;101778.25;5007273;28;20044;-65
2023/09/15 07:39:32;;;;;;;6.10;4.00;;;;;;;23.38;47.95;101787.63;5007626;28;20390;-67
2023/09/15 07:41:57;;;;;;;8.57;3.65;;;;;;;23.38;47.79;101777.00;5007698;28;20025;-65
2023/09/15 07:44:23;;;;;;;5.75;3.53;;;;;;;23.40;47.96;101785.69;5007499;28;20423;-67
2023/09/15 07:46:48;;;;;;;5.95;3.75;;;;;;;23.39;48.00;101778.69;5007734;28;20044;-68
2023/09/15 07:49:13;;;;;;;7.13;3.50;;;;;;;23.39;48.23;101784.00;5007477;28;20034;-67
2023/09/15 07:51:39;;;;;;;8.57;3.40;;;;;;;23.41;48.25;101783.88;5007683;28;20109;-67
2023/09/15 07:54:04;;;;;;;5.75;3.60;;;;;;;23.43;48.34;101780.09;5007156;28;20084;-67
2023/09/15 07:56:29;;;;;;;8.40;3.72;;;;;;;23.45;48.08;101778.13;5007343;28;20922;-67
2023/09/15 07:58:55;;;;;;;8.13;3.60;;;;;;;23.48;48.29;101777.00;5005794;28;20363;-69
2023/09/15 08:01:20;;;;;;;6.15;3.83;;;;;;;23.48;47.97;101775.22;5006833;28;20065;-69
2023/09/15 08:03:46;;;;;;;5.95;3.35;;;;;;;23.49;48.49;101776.03;5005395;28;20462;-67
2023/09/15 08:06:11;;;;;;;5.50;3.83;;;;;;;23.50;48.45;101786.53;5005453;28;20412;-66
2023/09/15 08:08:37;;;;;;;5.63;3.70;;;;;;;23.51;48.50;101771.41;5006830;28;20034;-67
2023/09/15 08:11:02;;;;;;;5.50;3.38;;;;;;;23.52;48.32;101776.59;5005089;28;20037;-67
2023/09/15 08:13:28;;;;;;;6.88;3.50;;;;;;;23.53;48.40;101772.13;5006399;28;20072;-68
2023/09/15 08:15:54;;;;;;;5.05;3.40;;;;;;;23.49;48.22;101774.22;5006986;28;20388;-67
2023/09/15 08:18:23;;;;;;;5.88;3.42;;;;;;;23.49;48.48;101766.22;5007078;28;20074;-67
2023/09/15 08:20:48;;;;;;;4.82;3.20;;;;;;;23.52;48.32;101768.63;5007029;28;20109;-67
2023/09/15 08:23:14;;;;;;;6.47;3.60;;;;;;;23.54;48.28;101768.47;5006663;28;20120;-66
2023/09/15 08:25:40;;;;;;;7.05;3.92;;;;;;;23.55;48.47;101772.81;5006876;28;20064;-70
2023/09/15 08:28:06;;;;;;;5.90;3.42;;;;;;;23.57;48.24;101765.53;5004675;28;20430;-67
2023/09/15 08:30:33;;;;;;;7.25;3.50;;;;;;;23.58;48.69;101769.06;5006765;28;20050;-67
2023/09/15 08:32:59;;;;;;;5.93;3.60;;;;;;;23.58;48.68;101774.38;5006760;28;20112;-69
2023/09/15 08:35:25;;;;;;;6.78;3.65;;;;;;;23.59;48.41;101779.56;5007594;28;20152;-68
2023/09/15 08:37:51;;;;;;;5.43;3.50;;;;;;;23.58;48.42;101766.41;5006660;28;20034;-66
2023/09/15 08:40:19;;;;;;;4.90;3.30;;;;;;;23.60;48.11;101767.09;5006431;28;20087;-68
2023/09/15 08:42:45;;;;;;;6.50;3.13;;;;;;;23.60;48.23;101762.59;5006857;28;20037;-70
2023/09/15 08:45:11;;;;;;;6.13;3.53;;;;;;;23.60;48.63;101764.44;5006628;28;20118;-69
2023/09/15 08:47:39;;;;;;;5.57;3.35;;;;;;;23.61;48.62;101760.81;5009291;28;20034;-69
2023/09/15 08:50:07;;;;;;;5.40;3.50;;;;;;;23.62;48.84;101757.16;5010547;28;20034;-67
2023/09/15 08:52:34;;;;;;;6.28;3.42;;;;;;;23.63;48.69;101751.69;5010798;28;20037;-67
2023/09/15 08:55:01;;;;;;;6.63;3.45;;;;;;;23.63;48.14;101750.84;5009357;28;20137;-69
2023/09/15 08:57:29;;;;;;;4.70;3.10;;;;;;;23.63;48.25;101756.19;5010503;28;20061;-68
2023/09/15 08:59:54;;;;;;;6.65;3.15;;;;;;;23.63;48.09;101753.50;5010585;28;20033;-67
2023/09/15 09:02:22;;;;;;;6.68;3.38;;;;;;;23.64;48.20;101755.19;5010685;28;20493;-68
2023/09/15 09:04:48;;;;;;;6.00;3.13;;;;;;;23.63;48.38;101750.84;5010340;28;20037;-69
2023/09/15 09:07:14;;;;;;;5.22;3.25;;;;;;;23.62;48.58;101751.81;5009869;28;20034;-68
2023/09/15 09:09:41;;;;;;;7.10;3.33;;;;;;;23.63;48.16;101754.34;5010161;28;20394;-69
2023/09/15 09:12:08;;;;;;;5.15;3.00;;;;;;;23.65;48.80;101756.88;5010091;28;20052;-70
2023/09/15 09:14:34;;;;;;;5.75;3.22;;;;;;;23.66;48.69;101753.25;5010416;28;20029;-69
2023/09/15 09:17:01;;;;;;;5.72;3.08;;;;;;;23.68;48.24;101757.41;5008768;28;20033;-67
2023/09/15 09:19:38;;;;;;;5.13;3.08;;;;;;;23.53;49.02;101749.03;5010265;28;20753;-70
2023/09/15 09:22:07;;;;;;;5.15;2.95;;;;;;;23.49;48.55;101752.94;5008307;28;20025;-70
2023/09/15 09:24:33;;;;;;;5.75;2.70;;;;;;;23.44;48.98;101747.19;5009088;28;20397;-69
2023/09/15 09:26:59;;;;;;;5.82;3.10;;;;;;;23.42;48.99;101749.16;5008317;28;20034;-69
2023/09/15 09:29:27;;;;;;;5.20;3.00;;;;;;;23.40;49.40;101755.56;5008650;28;20477;-69
2023/09/15 09:31:52;;;;;;;5.03;3.00;;;;;;;23.40;49.30;101755.56;5008822;28;20045;-68
2023/09/15 09:34:18;;;;;;;4.50;2.58;;;;;;;23.38;49.44;101742.41;5008463;28;20030;-70
2023/09/15 09:36:51;;;;;;;5.55;3.08;;;;;;;23.40;49.47;101743.13;5008769;28;20034;-68
2023/09/15 09:39:16;;;;;;;4.78;2.90;;;;;;;23.44;48.96;101751.69;5008802;28;20038;-70
2023/09/15 09:41:43;;;;;;;6.20;2.92;;;;;;;23.44;49.22;101749.00;5009043;28;20039;-71
2023/09/15 09:44:09;;;;;;;5.63;2.92;;;;;;;23.44;48.80;101741.03;5009157;28;20413;-69
2023/09/15 09:46:36;;;;;;;4.88;2.80;;;;;;;23.46;49.36;101739.06;5007752;28;20030;-66
2023/09/15 09:49:03;;;;;;;6.07;2.70;;;;;;;23.46;48.98;101736.41;5008502;28;20064;-70
2023/09/15 09:51:29;;;;;;;6.00;2.88;;;;;;;23.46;49.24;101733.75;5008801;28;20030;-69
2023/09/15 09:53:57;;;;;;;5.30;2.60;;;;;;;23.46;48.90;101734.56;5007401;28;20034;-68
2023/09/15 09:56:23;;;;;;;5.97;3.28;;;;;;;23.46;49.38;101736.41;5008633;28;20319;-66
2023/09/15 09:58:49;;;;;;;5.07;2.60;;;;;;;23.47;49.20;101738.09;5007567;28;20103;-68
2023/09/15 10:01:14;;;;;;;4.18;2.47;;;;;;;23.49;49.19;101731.66;5008019;28;20026;-69
2023/09/15 10:03:40;;;;;;;6.28;2.55;;;;;;;23.54;49.17;101729.44;5006889;28;20030;-68
2023/09/15 10:06:06;;;;;;;5.97;2.63;;;;;;;23.54;49.05;101728.56;5008442;28;20524;-66
2023/09/15 10:08:32;;;;;;;8.20;2.92;;;;;;;23.55;48.21;101730.25;5008600;28;20025;-65
2023/09/15 10:10:59;;;;;;;5.50;2.85;;;;;;;23.53;48.78;101722.41;5008722;28;20088;-69
2023/09/15 10:13:24;;;;;;;4.60;2.60;;;;;;;23.54;49.16;101728.56;5007745;28;20489;-68
2023/09/15 10:15:51;;;;;;;5.22;2.40;;;;;;;23.54;49.12;101717.94;5006087;28;20072;-66
2023/09/15 10:18:19;;;;;;;6.38;2.35;;;;;;;23.55;48.91;101711.63;5004432;28;20425;-66
2023/09/15 10:20:48;;;;;;;6.85;2.90;;;;;;;23.54;49.26;101701.97;5007081;28;20458;-69
2023/09/15 10:23:14;;;;;;;6.03;2.80;;;;;;;23.57;48.75;101701.69;5007320;28;20523;-67
2023/09/15 10:25:57;;;;;;;5.97;2.58;;;;;;;23.59;49.42;101706.88;5008313;28;20044;-68
2023/09/15 10:28:23;;;;;;;6.50;2.87;;;;;;;23.63;48.97;101706.44;5008386;28;20459;-70
2023/09/15 10:30:54;;;;;;;9.38;2.35;;;;;;;23.62;49.38;101701.25;5008018;28;20062;-68
2023/09/15 10:33:25;;;;;;;4.40;2.17;;;;;;;23.64;49.51;101694.84;5008188;28;20029;-67
2023/09/15 10:35:51;;;;;;;5.85;2.53;;;;;;;23.71;48.76;101700.44;5003775;28;20065;-72
2023/09/15 10:38:28;;;;;;;6.50;2.45;;;;;;;23.77;49.10;101691.06;5006372;28;20065;-68
2023/09/15 10:40:54;;;;;;;4.70;2.45;;;;;;;23.82;48.74;101686.13;5007434;28;20034;-69
2023/09/15 10:43:20;;;;;;;4.20;2.40;;;;;;;23.87;48.70;101691.91;5007935;28;20482;-69
2023/09/15 10:45:52;;;;;;;5.38;2.38;;;;;;;23.85;48.80;101685.88;5008454;28;20022;-68
2023/09/15 10:48:18;;;;;;;4.95;2.45;;;;;;;23.86;49.16;101682.22;5008337;28;20058;-69
2023/09/15 10:50:44;;;;;;;5.63;2.28;;;;;;;23.85;49.14;101677.91;5007510;28;20084;-66
2023/09/15 10:53:11;;;;;;;7.78;2.20;;;;;;;23.88;48.77;101682.94;5008089;28;20084;-67
2023/09/15 10:55:38;;;;;;;4.40;2.45;;;;;;;23.86;48.61;101674.25;5005949;28;20037;-69
2023/09/15 10:58:04;;;;;;;4.13;2.40;;;;;;;23.81;49.12;101671.13;5021992;28;20389;-69
2023/09/15 11:00:31;;;;;;;4.88;2.60;;;;;;;23.75;49.30;101669.03;5007652;28;20029;-68
2023/09/15 11:02:56;;;;;;;5.80;2.20;;;;;;;23.72;49.33;101662.19;5008255;28;20050;-69
2023/09/15 11:05:22;;;;;;;5.05;2.13;;;;;;;23.71;49.24;101660.50;5007710;28;20034;-71
2023/09/15 11:07:48;;;;;;;5.03;2.40;;;;;;;23.69;49.73;101659.81;5006844;28;20034;-68
2023/09/15 11:10:13;;;;;;;5.22;2.53;;;;;;;23.73;49.73;101658.53;5005965;28;20160;-64
2023/09/15 11:12:38;;;;;;;5.07;2.70;;;;;;;23.73;49.26;101655.88;5006305;28;20026;-64
2023/09/15 11:15:04;;;;;;;4.47;2.10;;;;;;;23.71;49.09;101655.19;5006755;28;20263;-63
2023/09/15 11:17:30;;;;;;;4.35;2.17;;;;;;;23.69;49.42;101657.16;5007222;28;20030;-65
2023/09/15 11:19:57;;;;;;;4.13;2.10;;;;;;;23.65;49.67;101651.25;5007488;28;20022;-64